createdAt,value
2019-01-10T00:00:06.125Z,91.02
2019-01-10T00:01:06.103Z,90.50
2019-01-10T00:02:06.083Z,90.64
2019-01-10T00:03:06.088Z,90.50
2019-01-10T00:04:06.070Z,90.81
2019-01-10T00:05:06.066Z,90.50
2019-01-10T00:06:06.040Z,90.60
2019-01-10T00:07:06.043Z,90.39
2019-01-10T00:08:06.021Z,90.08
2019-01-10T00:09:06.023Z,90.29
2019-01-10T00:10:06.016Z,90.08
2019-01-10T00:11:05.987Z,90.12
2019-01-10T00:12:05.978Z,90.33
2019-01-10T00:13:05.976Z,90.02
2019-01-10T00:14:05.957Z,90.44
2019-01-10T00:15:05.954Z,90.64
2019-01-10T00:16:05.929Z,90.12
2019-01-10T00:17:05.920Z,90.12
2019-01-10T00:18:05.908Z,90.44
2019-01-10T00:19:05.901Z,90.64
2019-01-10T00:20:05.902Z,90.44
2019-01-10T00:21:05.879Z,90.64
2019-01-10T00:22:05.887Z,90.75
2019-01-10T00:23:05.858Z,90.69
2019-01-10T00:24:05.848Z,90.44
2019-01-10T00:25:05.880Z,90.23
2019-01-10T00:26:05.826Z,90.12
2019-01-10T00:27:05.821Z,90.12
2019-01-10T00:28:05.804Z,90.16
2019-01-10T00:29:05.794Z,90.44
2019-01-10T00:30:05.805Z,89.75
2019-01-10T00:31:05.782Z,89.75
2019-01-10T00:32:05.768Z,89.95
2019-01-10T00:33:05.758Z,90.02
2019-01-10T00:34:05.742Z,89.92
2019-01-10T00:35:05.745Z,90.06
2019-01-10T00:36:05.722Z,89.95
2019-01-10T00:37:05.715Z,90.16
2019-01-10T00:38:05.714Z,90.16
2019-01-10T00:39:05.687Z,89.33
2019-01-10T00:40:05.701Z,89.75
2019-01-10T00:41:05.678Z,89.64
2019-01-10T00:42:05.664Z,90.16
2019-01-10T00:43:05.659Z,89.12
2019-01-10T00:44:05.642Z,90.37
2019-01-10T00:45:05.665Z,90.06
2019-01-10T00:46:05.614Z,90.06
2019-01-10T00:47:05.604Z,89.43
2019-01-10T00:48:05.592Z,89.12
2019-01-10T00:49:05.586Z,89.64
2019-01-10T00:50:05.582Z,89.85
2019-01-10T00:51:05.559Z,89.43
2019-01-10T00:52:05.549Z,89.02
2019-01-10T00:53:05.543Z,89.12
2019-01-10T00:54:05.527Z,90.06
2019-01-10T00:55:05.532Z,89.95
2019-01-10T00:56:05.546Z,89.64
2019-01-10T00:57:05.497Z,89.54
2019-01-10T00:58:05.521Z,89.12
2019-01-10T00:59:05.476Z,89.64
2019-01-10T01:00:05.495Z,90.06
2019-01-10T01:01:05.460Z,88.92
2019-01-10T01:02:05.450Z,88.50
2019-01-10T01:03:05.440Z,88.92
2019-01-10T01:04:05.449Z,89.02
2019-01-10T01:05:05.431Z,88.19
2019-01-10T01:06:05.404Z,88.50
2019-01-10T01:07:05.407Z,88.50
2019-01-10T01:08:05.379Z,88.60
2019-01-10T01:09:05.371Z,88.29
2019-01-10T01:10:05.447Z,89.02
2019-01-10T01:11:05.353Z,89.02
2019-01-10T01:12:05.340Z,88.50
2019-01-10T01:13:05.332Z,89.12
2019-01-10T01:14:05.319Z,89.43
2019-01-10T01:15:05.316Z,89.23
2019-01-10T01:16:05.316Z,88.40
2019-01-10T01:17:05.288Z,88.29
2019-01-10T01:18:05.280Z,88.40
2019-01-10T01:19:05.268Z,88.92
2019-01-10T01:20:05.261Z,88.81
2019-01-10T01:21:05.268Z,88.46
2019-01-10T01:22:05.246Z,88.19
2019-01-10T01:23:05.226Z,88.15
2019-01-10T01:24:05.214Z,88.15
2019-01-10T01:25:05.211Z,88.25
2019-01-10T01:26:05.216Z,88.50
2019-01-10T01:27:05.202Z,88.35
2019-01-10T01:28:05.202Z,88.81
2019-01-10T01:29:05.194Z,88.35
2019-01-10T01:30:05.155Z,88.60
2019-01-10T01:31:05.151Z,88.81
2019-01-10T01:32:05.130Z,88.60
2019-01-10T01:33:05.118Z,88.60
2019-01-10T01:34:05.132Z,88.25
2019-01-10T01:35:05.097Z,88.71
2019-01-10T01:36:05.098Z,88.25
2019-01-10T01:37:05.091Z,88.60
2019-01-10T01:38:05.082Z,88.40
2019-01-10T01:39:05.060Z,88.40
2019-01-10T01:40:05.082Z,88.60
2019-01-10T01:41:05.058Z,88.81
2019-01-10T01:42:05.039Z,88.40
2019-01-10T01:43:07.586Z,88.81
2019-01-10T01:44:05.016Z,88.56
2019-01-10T01:45:05.001Z,88.29
2019-01-10T01:46:05.025Z,88.50
2019-01-10T01:47:04.990Z,88.50
2019-01-10T01:48:04.982Z,87.88
2019-01-10T01:49:04.958Z,88.40
2019-01-10T01:50:04.951Z,88.50
2019-01-10T01:51:04.957Z,88.40
2019-01-10T01:52:04.928Z,88.71
2019-01-10T01:53:04.916Z,88.50
2019-01-10T01:54:04.906Z,88.40
2019-01-10T01:55:04.886Z,88.40
2019-01-10T01:56:04.887Z,88.40
2019-01-10T01:57:04.870Z,88.60
2019-01-10T01:58:04.853Z,88.40
2019-01-10T01:59:04.843Z,88.60
2019-01-10T02:00:04.833Z,88.40
2019-01-10T02:01:04.838Z,88.60
2019-01-10T02:02:04.810Z,88.92
2019-01-10T02:03:04.802Z,88.60
2019-01-10T02:04:04.791Z,88.15
2019-01-10T02:05:04.781Z,88.40
2019-01-10T02:06:04.791Z,88.29
2019-01-10T02:07:04.761Z,88.77
2019-01-10T02:08:04.750Z,88.29
2019-01-10T02:09:04.738Z,88.19
2019-01-10T02:10:04.727Z,88.71
2019-01-10T02:11:04.758Z,88.81
2019-01-10T02:12:04.714Z,88.50
2019-01-10T02:13:04.696Z,88.40
2019-01-10T02:14:04.687Z,88.29
2019-01-10T02:15:04.673Z,88.09
2019-01-10T02:16:04.682Z,88.71
2019-01-10T02:17:04.666Z,88.50
2019-01-10T02:18:04.647Z,89.02
2019-01-10T02:19:04.632Z,89.02
2019-01-10T02:20:04.622Z,88.92
2019-01-10T02:21:04.608Z,88.81
2019-01-10T02:22:04.615Z,89.02
2019-01-10T02:23:04.599Z,88.81
2019-01-10T02:24:04.587Z,89.23
2019-01-10T02:25:04.575Z,88.81
2019-01-10T02:26:04.559Z,88.50
2019-01-10T02:27:04.558Z,88.09
2019-01-10T02:28:04.537Z,89.48
2019-01-10T02:29:04.531Z,89.54
2019-01-10T02:30:04.550Z,89.54
2019-01-10T02:31:04.505Z,89.64
2019-01-10T02:32:04.518Z,89.75
2019-01-10T02:33:04.493Z,88.71
2019-01-10T02:34:04.495Z,88.09
2019-01-10T02:35:04.469Z,88.81
2019-01-10T02:36:04.452Z,88.81
2019-01-10T02:37:04.459Z,88.19
2019-01-10T02:38:04.436Z,88.64
2019-01-10T02:39:04.422Z,89.23
2019-01-10T02:40:04.411Z,89.95
2019-01-10T02:41:04.425Z,89.75
2019-01-10T02:42:04.413Z,88.81
2019-01-10T02:43:04.380Z,88.92
2019-01-10T02:44:04.368Z,89.02
2019-01-10T02:45:04.367Z,88.71
2019-01-10T02:46:04.348Z,88.81
2019-01-10T02:47:04.353Z,88.50
2019-01-10T02:48:04.457Z,88.29
2019-01-10T02:49:04.325Z,88.60
2019-01-10T02:50:04.305Z,88.40
2019-01-10T02:51:04.294Z,88.40
2019-01-10T02:52:04.301Z,88.40
2019-01-10T02:53:04.286Z,88.40
2019-01-10T02:54:04.279Z,88.81
2019-01-10T02:55:04.252Z,88.19
2019-01-10T02:56:04.240Z,88.40
2019-01-10T02:57:04.248Z,88.71
2019-01-10T02:58:04.219Z,88.29
2019-01-10T02:59:04.227Z,88.50
2019-01-10T03:00:04.199Z,88.40
2019-01-10T03:01:04.191Z,88.40
2019-01-10T03:02:04.201Z,87.56
2019-01-10T03:03:04.179Z,87.46
2019-01-10T03:04:04.161Z,87.25
2019-01-10T03:05:04.146Z,87.66
2019-01-10T03:06:04.138Z,87.15
2019-01-10T03:07:04.145Z,87.46
2019-01-10T03:08:04.122Z,87.46
2019-01-10T03:09:04.197Z,87.15
2019-01-10T03:10:04.098Z,86.94
2019-01-10T03:11:04.083Z,86.94
2019-01-10T03:12:04.094Z,86.52
2019-01-10T03:13:04.067Z,86.52
2019-01-10T03:14:04.052Z,87.19
2019-01-10T03:15:04.042Z,86.77
2019-01-10T03:16:04.040Z,87.29
2019-01-10T03:17:04.041Z,87.46
2019-01-10T03:18:04.014Z,86.42
2019-01-10T03:19:04.001Z,86.94
2019-01-10T03:20:03.990Z,86.63
2019-01-10T03:21:03.989Z,86.98
2019-01-10T03:22:03.993Z,86.35
2019-01-10T03:23:03.987Z,86.35
2019-01-10T03:24:03.949Z,86.94
2019-01-10T03:25:03.939Z,86.73
2019-01-10T03:26:03.931Z,87.04
2019-01-10T03:27:03.927Z,86.63
2019-01-10T03:28:03.921Z,86.94
2019-01-10T03:29:03.897Z,86.00
2019-01-10T03:30:03.884Z,86.00
2019-01-10T03:31:03.885Z,86.32
2019-01-10T03:32:04.176Z,86.52
2019-01-10T03:33:03.871Z,86.94
2019-01-10T03:34:03.883Z,87.04
2019-01-10T03:35:03.833Z,87.04
2019-01-10T03:36:03.823Z,86.94
2019-01-10T03:37:03.812Z,86.63
2019-01-10T03:38:03.823Z,85.59
2019-01-10T03:39:03.790Z,85.90
2019-01-10T03:40:03.787Z,85.90
2019-01-10T03:41:03.769Z,85.59
2019-01-10T03:42:03.864Z,84.44
2019-01-10T03:43:03.758Z,85.00
2019-01-10T03:44:03.744Z,85.63
2019-01-10T03:45:03.734Z,85.31
2019-01-10T03:46:03.740Z,85.94
2019-01-10T03:47:03.713Z,85.63
2019-01-10T03:48:03.704Z,86.21
2019-01-10T03:49:03.686Z,85.94
2019-01-10T03:50:03.677Z,85.28
2019-01-10T03:51:03.675Z,85.42
2019-01-10T03:52:03.668Z,84.38
2019-01-10T03:53:03.740Z,84.27
2019-01-10T03:54:03.630Z,84.27
2019-01-10T03:55:03.628Z,85.11
2019-01-10T03:56:03.641Z,83.65
2019-01-10T03:57:03.609Z,82.71
2019-01-10T03:58:03.631Z,83.13
2019-01-10T03:59:03.580Z,83.65
2019-01-10T04:00:03.568Z,84.06
2019-01-10T04:01:03.558Z,83.86
2019-01-10T04:02:03.551Z,83.75
2019-01-10T04:03:03.598Z,83.75
2019-01-10T04:04:03.530Z,84.06
2019-01-10T04:05:03.515Z,83.75
2019-01-10T04:06:03.506Z,83.65
2019-01-10T04:07:03.493Z,83.34
2019-01-10T04:08:03.505Z,83.96
2019-01-10T04:09:03.494Z,83.54
2019-01-10T04:10:03.657Z,83.65
2019-01-10T04:11:03.465Z,83.86
2019-01-10T04:12:03.627Z,83.23
2019-01-10T04:13:03.443Z,83.23
2019-01-10T04:14:03.422Z,83.03
2019-01-10T04:15:03.437Z,83.34
2019-01-10T04:16:03.413Z,83.75
2019-01-10T04:17:03.391Z,83.61
2019-01-10T04:18:03.399Z,84.06
2019-01-10T04:19:03.372Z,83.96
2019-01-10T04:20:03.366Z,83.86
2019-01-10T04:21:03.365Z,83.61
2019-01-10T04:22:03.339Z,83.65
2019-01-10T04:23:03.342Z,84.06
2019-01-10T04:24:03.318Z,83.75
2019-01-10T04:25:03.345Z,83.96
2019-01-10T04:26:03.311Z,83.72
2019-01-10T04:27:03.284Z,83.72
2019-01-10T04:28:03.284Z,83.86
2019-01-10T04:29:03.271Z,83.92
2019-01-10T04:30:03.264Z,84.44
2019-01-10T04:31:03.287Z,83.82
2019-01-10T04:32:03.243Z,83.96
2019-01-10T04:33:03.246Z,84.06
2019-01-10T04:34:03.213Z,84.65
2019-01-10T04:35:03.209Z,83.96
2019-01-10T04:36:03.193Z,84.44
2019-01-10T04:37:03.186Z,84.44
2019-01-10T04:38:03.209Z,84.13
2019-01-10T04:39:03.157Z,84.44
2019-01-10T04:40:03.148Z,84.96
2019-01-10T04:41:03.138Z,84.23
2019-01-10T04:42:03.131Z,84.23
2019-01-10T04:43:03.142Z,84.55
2019-01-10T04:44:07.176Z,84.44
2019-01-10T04:45:03.098Z,84.27
2019-01-10T04:46:03.104Z,84.48
2019-01-10T04:47:03.078Z,84.27
2019-01-10T04:48:03.127Z,84.38
2019-01-10T04:49:03.071Z,85.00
2019-01-10T04:50:03.059Z,84.96
2019-01-10T04:51:03.036Z,85.06
2019-01-10T04:52:03.023Z,84.48
2019-01-10T04:53:03.060Z,85.31
2019-01-10T04:54:03.003Z,85.06
2019-01-10T04:55:02.996Z,84.96
2019-01-10T04:56:02.985Z,84.03
2019-01-10T04:57:02.972Z,84.23
2019-01-10T04:58:02.959Z,84.44
2019-01-10T04:59:02.963Z,84.13
2019-01-10T05:00:02.955Z,84.65
2019-01-10T05:01:02.930Z,84.48
2019-01-10T05:02:02.919Z,84.38
2019-01-10T05:03:02.939Z,83.86
2019-01-10T05:04:02.916Z,83.75
2019-01-10T05:05:02.900Z,84.48
2019-01-10T05:06:02.881Z,84.38
2019-01-10T05:07:02.877Z,85.00
2019-01-10T05:08:02.870Z,85.00
2019-01-10T05:09:02.865Z,85.00
2019-01-10T05:10:02.840Z,85.11
2019-01-10T05:11:02.824Z,85.00
2019-01-10T05:12:02.819Z,84.80
2019-01-10T05:13:02.834Z,85.11
2019-01-10T05:14:02.806Z,84.69
2019-01-10T05:15:02.781Z,84.48
2019-01-10T05:16:02.815Z,84.48
2019-01-10T05:17:02.763Z,85.00
2019-01-10T05:18:02.753Z,84.69
2019-01-10T05:19:02.775Z,85.25
2019-01-10T05:20:02.744Z,85.56
2019-01-10T05:21:02.717Z,85.77
2019-01-10T05:22:02.714Z,85.67
2019-01-10T05:23:02.697Z,85.67
2019-01-10T05:24:02.868Z,86.40
2019-01-10T05:25:02.677Z,86.60
2019-01-10T05:26:02.667Z,86.50
2019-01-10T05:27:02.666Z,86.40
2019-01-10T05:28:02.655Z,85.88
2019-01-10T05:29:02.652Z,85.98
2019-01-10T05:30:02.629Z,85.98
2019-01-10T05:31:02.670Z,86.29
2019-01-10T05:32:02.769Z,86.60
2019-01-10T05:33:02.594Z,86.29
2019-01-10T05:34:02.601Z,86.40
2019-01-10T05:35:02.579Z,85.88
2019-01-10T05:36:02.571Z,85.67
2019-01-10T05:37:02.557Z,85.98
2019-01-10T05:38:02.554Z,85.98
2019-01-10T05:39:02.544Z,85.77
2019-01-10T05:40:02.522Z,85.67
2019-01-10T05:41:02.544Z,85.67
2019-01-10T05:42:02.502Z,84.42
2019-01-10T05:43:02.509Z,85.04
2019-01-10T05:44:02.494Z,84.21
2019-01-10T05:45:02.470Z,84.73
2019-01-10T05:46:02.457Z,84.42
2019-01-10T05:47:02.446Z,85.35
2019-01-10T05:48:02.456Z,85.14
2019-01-10T05:49:02.445Z,85.46
2019-01-10T05:50:02.414Z,85.73
2019-01-10T05:51:02.403Z,85.04
2019-01-10T05:52:02.405Z,84.63
2019-01-10T05:53:02.381Z,84.52
2019-01-10T05:54:02.383Z,84.52
2019-01-10T05:55:02.376Z,84.73
2019-01-10T05:56:02.353Z,84.52
2019-01-10T05:57:02.345Z,84.42
2019-01-10T05:58:02.335Z,84.63
2019-01-10T05:59:02.340Z,84.63
2019-01-10T06:00:02.316Z,84.73
2019-01-10T06:01:02.313Z,84.21
2019-01-10T06:02:02.287Z,84.52
2019-01-10T06:03:02.281Z,84.52
2019-01-10T06:04:02.281Z,84.73
2019-01-10T06:05:02.269Z,84.52
2019-01-10T06:06:02.250Z,84.31
2019-01-10T06:07:02.246Z,84.52
2019-01-10T06:08:02.268Z,83.90
2019-01-10T06:09:02.374Z,84.11
2019-01-10T06:10:02.227Z,84.17
2019-01-10T06:11:02.197Z,83.90
2019-01-10T06:12:02.186Z,84.21
2019-01-10T06:13:02.176Z,84.73
2019-01-10T06:14:02.200Z,84.66
2019-01-10T06:15:02.162Z,84.63
2019-01-10T06:16:02.143Z,84.11
2019-01-10T06:17:02.140Z,84.00
2019-01-10T06:18:02.131Z,83.80
2019-01-10T06:19:02.123Z,83.69
2019-01-10T06:20:02.130Z,84.42
2019-01-10T06:21:02.109Z,84.42
2019-01-10T06:22:02.080Z,83.90
2019-01-10T06:23:02.078Z,83.96
2019-01-10T06:24:02.063Z,83.27
2019-01-10T06:25:02.077Z,82.86
2019-01-10T06:26:02.043Z,82.96
2019-01-10T06:27:02.030Z,82.34
2019-01-10T06:28:02.018Z,83.48
2019-01-10T06:29:02.006Z,82.96
2019-01-10T06:30:02.017Z,83.69
2019-01-10T06:31:01.999Z,83.80
2019-01-10T06:32:01.977Z,83.06
2019-01-10T06:33:01.965Z,83.37
2019-01-10T06:34:01.960Z,83.48
2019-01-10T06:35:01.954Z,82.96
2019-01-10T06:36:01.939Z,83.69
2019-01-10T06:37:01.936Z,83.37
2019-01-10T06:38:01.922Z,83.48
2019-01-10T06:39:01.907Z,83.06
2019-01-10T06:40:01.913Z,82.75
2019-01-10T06:41:01.923Z,82.75
2019-01-10T06:42:01.887Z,83.27
2019-01-10T06:43:01.864Z,83.90
2019-01-10T06:44:01.849Z,83.27
2019-01-10T06:45:01.906Z,83.69
2019-01-10T06:46:01.835Z,83.37
2019-01-10T06:47:01.856Z,82.65
2019-01-10T06:48:01.810Z,82.96
2019-01-10T06:49:01.811Z,83.06
2019-01-10T06:50:01.817Z,82.51
2019-01-10T06:51:01.780Z,82.54
2019-01-10T06:52:01.770Z,82.65
2019-01-10T06:53:01.771Z,83.06
2019-01-10T06:54:01.747Z,82.96
2019-01-10T06:55:01.749Z,83.27
2019-01-10T06:56:01.733Z,83.06
2019-01-10T06:57:01.722Z,83.48
2019-01-10T06:58:01.729Z,82.34
2019-01-10T06:59:01.712Z,82.54
2019-01-10T07:00:01.727Z,82.23
2019-01-10T07:01:01.726Z,82.75
2019-01-10T07:02:01.670Z,82.71
2019-01-10T07:03:01.721Z,82.71
2019-01-10T07:04:01.660Z,81.81
2019-01-10T07:05:01.657Z,81.88
2019-01-10T07:06:01.639Z,81.71
2019-01-10T07:07:01.616Z,81.71
2019-01-10T07:08:01.615Z,80.84
2019-01-10T07:09:01.602Z,81.19
2019-01-10T07:10:01.605Z,81.71
2019-01-10T07:11:01.580Z,81.81
2019-01-10T07:12:01.571Z,81.81
2019-01-10T07:13:01.575Z,81.81
2019-01-10T07:14:01.547Z,81.77
2019-01-10T07:15:01.560Z,81.88
2019-01-10T07:16:01.526Z,82.13
2019-01-10T07:17:01.508Z,81.81
2019-01-10T07:18:01.498Z,81.81
2019-01-10T07:19:01.501Z,80.98
2019-01-10T07:20:01.676Z,80.40
2019-01-10T07:21:01.497Z,80.98
2019-01-10T07:22:01.463Z,81.12
2019-01-10T07:23:01.451Z,81.65
2019-01-10T07:24:01.468Z,81.81
2019-01-10T07:25:01.423Z,81.92
2019-01-10T07:26:01.424Z,82.06
2019-01-10T07:27:01.419Z,81.81
2019-01-10T07:28:01.391Z,81.92
2019-01-10T07:29:01.381Z,80.91
2019-01-10T07:30:01.399Z,80.50
2019-01-10T07:31:01.377Z,80.71
2019-01-10T07:32:01.380Z,80.95
2019-01-10T07:33:01.366Z,80.91
2019-01-10T07:34:01.329Z,82.10
2019-01-10T07:35:01.323Z,82.06
2019-01-10T07:36:01.328Z,81.65
2019-01-10T07:37:01.303Z,81.85
2019-01-10T07:38:01.296Z,81.75
2019-01-10T07:39:01.283Z,81.19
2019-01-10T07:40:01.283Z,80.40
2019-01-10T07:41:01.276Z,80.60
2019-01-10T07:42:01.266Z,80.71
2019-01-10T07:43:01.254Z,81.02
2019-01-10T07:44:01.258Z,80.91
2019-01-10T07:45:02.800Z,80.50
2019-01-10T07:46:01.223Z,80.60
2019-01-10T07:47:01.242Z,80.85
2019-01-10T07:48:01.195Z,80.74
2019-01-10T07:49:01.185Z,80.74
2019-01-10T07:50:01.167Z,80.95
2019-01-10T07:51:01.173Z,81.16
2019-01-10T07:52:01.166Z,81.89
2019-01-10T07:53:01.138Z,81.89
2019-01-10T07:54:01.123Z,82.31
2019-01-10T07:55:01.110Z,81.96
2019-01-10T07:56:01.121Z,81.85
2019-01-10T07:57:01.221Z,82.37
2019-01-10T07:58:01.078Z,82.27
2019-01-10T07:59:01.203Z,82.17
2019-01-10T08:00:01.058Z,80.81
2019-01-10T08:01:01.072Z,80.74
2019-01-10T08:02:01.075Z,81.85
2019-01-10T08:03:01.032Z,81.79
2019-01-10T08:04:01.026Z,81.68
2019-01-10T08:05:01.020Z,80.91
2019-01-10T08:06:01.017Z,81.05
2019-01-10T08:07:00.988Z,81.02
2019-01-10T08:08:00.974Z,81.26
2019-01-10T08:09:00.964Z,81.99
2019-01-10T08:10:00.957Z,81.75
2019-01-10T08:11:00.954Z,81.65
2019-01-10T08:12:00.949Z,80.81
2019-01-10T08:13:00.934Z,80.33
2019-01-10T08:14:00.916Z,80.22
2019-01-10T08:15:00.903Z,79.80
2019-01-10T08:16:00.937Z,80.12
2019-01-10T08:17:00.920Z,80.54
2019-01-10T08:18:00.868Z,80.12
2019-01-10T08:19:00.857Z,80.74
2019-01-10T08:20:00.872Z,80.85
2019-01-10T08:21:00.898Z,80.64
2019-01-10T08:22:00.849Z,80.74
2019-01-10T08:23:00.830Z,80.54
2019-01-10T08:24:00.823Z,80.22
2019-01-10T08:25:00.808Z,80.85
2019-01-10T08:26:00.795Z,80.64
2019-01-10T08:27:00.798Z,80.64
2019-01-10T08:28:00.777Z,79.77
2019-01-10T08:29:00.763Z,80.29
2019-01-10T08:30:00.761Z,79.77
2019-01-10T08:31:00.745Z,80.08
2019-01-10T08:32:00.741Z,79.98
2019-01-10T08:33:00.714Z,80.08
2019-01-10T08:34:00.754Z,79.87
2019-01-10T08:35:00.709Z,80.40
2019-01-10T08:36:00.695Z,79.56
2019-01-10T08:37:00.696Z,78.63
2019-01-10T08:38:00.669Z,79.14
2019-01-10T08:39:00.665Z,79.66
2019-01-10T08:40:00.691Z,80.08
2019-01-10T08:41:00.637Z,78.63
2019-01-10T08:42:00.663Z,78.52
2019-01-10T08:43:00.618Z,78.83
2019-01-10T08:44:00.621Z,78.77
2019-01-10T08:45:00.684Z,78.24
2019-01-10T08:46:00.596Z,78.87
2019-01-10T08:47:00.626Z,78.97
2019-01-10T08:48:00.565Z,78.14
2019-01-10T08:49:00.560Z,78.97
2019-01-10T08:50:00.563Z,79.39
2019-01-10T08:51:00.536Z,79.60
2019-01-10T08:52:00.540Z,80.33
2019-01-10T08:53:00.507Z,78.87
2019-01-10T08:54:00.497Z,78.34
2019-01-10T08:55:00.524Z,78.03
2019-01-10T08:56:00.531Z,78.45
2019-01-10T08:57:00.486Z,78.66
2019-01-10T08:58:00.470Z,78.45
2019-01-10T08:59:00.448Z,78.14
2019-01-10T09:00:00.451Z,77.93
2019-01-10T09:01:00.526Z,78.66
2019-01-10T09:02:00.427Z,78.63
2019-01-10T09:03:00.429Z,78.14
2019-01-10T09:04:00.399Z,78.77
2019-01-10T09:05:00.395Z,78.73
2019-01-10T09:06:08.103Z,78.83
2019-01-10T09:07:01.375Z,79.35
2019-01-10T09:08:00.352Z,79.46
2019-01-10T09:09:01.176Z,78.49
2019-01-10T09:10:00.340Z,78.42
2019-01-10T09:11:00.323Z,78.31
2019-01-10T09:12:00.329Z,78.63
2019-01-10T09:13:00.309Z,78.20
2019-01-10T09:14:00.292Z,78.17
2019-01-10T09:15:00.370Z,78.69
2019-01-10T09:16:01.859Z,78.17
2019-01-10T09:17:00.282Z,78.69
2019-01-10T09:18:00.249Z,78.28
2019-01-10T09:19:00.436Z,78.66
2019-01-10T09:20:00.235Z,76.89
2019-01-10T09:21:04.421Z,77.20
2019-01-10T09:22:00.471Z,76.57
2019-01-10T09:23:00.201Z,76.57
2019-01-10T09:24:00.185Z,76.37
2019-01-10T09:25:00.182Z,76.54
2019-01-10T09:26:00.166Z,76.23
2019-01-10T09:27:00.175Z,76.64
2019-01-10T09:28:00.149Z,76.85
2019-01-10T09:29:00.138Z,76.75
2019-01-10T09:30:00.297Z,76.72
2019-01-10T09:31:00.112Z,76.61
2019-01-10T09:32:00.137Z,76.40
2019-01-10T09:33:00.099Z,75.67
2019-01-10T09:34:00.096Z,75.81
2019-01-10T09:35:00.265Z,75.29
2019-01-10T09:36:00.058Z,75.19
2019-01-10T09:37:00.049Z,74.98
2019-01-10T09:38:00.053Z,75.19
2019-01-10T09:39:00.037Z,75.71
2019-01-10T09:40:00.086Z,75.19
2019-01-10T09:41:00.225Z,75.29
2019-01-10T09:41:59.993Z,75.46
2019-01-10T09:42:59.992Z,74.43
2019-01-10T09:43:59.973Z,74.29
2019-01-10T09:44:59.975Z,74.29
2019-01-10T09:45:59.951Z,73.46
2019-01-10T09:46:59.933Z,73.46
2019-01-10T09:47:59.936Z,72.80
2019-01-10T09:48:59.914Z,72.80
2019-01-10T09:49:59.900Z,73.53
2019-01-10T09:50:59.893Z,73.77
2019-01-10T09:51:59.883Z,73.56
2019-01-10T09:52:59.882Z,73.77
2019-01-10T09:53:59.857Z,73.35
2019-01-10T09:54:59.848Z,74.08
2019-01-10T09:55:59.925Z,74.39
2019-01-10T09:56:59.835Z,74.70
2019-01-10T09:57:59.833Z,74.39
2019-01-10T09:58:59.807Z,74.18
2019-01-10T09:59:59.798Z,74.22
2019-01-10T10:00:59.784Z,74.11
2019-01-10T10:01:59.779Z,74.22
2019-01-10T10:02:59.785Z,74.22
2019-01-10T10:03:59.753Z,73.21
2019-01-10T10:05:00.827Z,73.42
2019-01-10T10:06:07.523Z,73.42
2019-01-10T10:07:00.732Z,73.11
2019-01-10T10:07:59.728Z,73.00
2019-01-10T10:08:59.717Z,73.73
2019-01-10T10:09:59.697Z,73.63
2019-01-10T10:10:59.687Z,73.32
2019-01-10T10:11:59.670Z,73.97
2019-01-10T10:12:59.680Z,74.18
2019-01-10T10:13:59.680Z,73.66
2019-01-10T10:14:59.682Z,73.03
2019-01-10T10:15:59.641Z,72.62
2019-01-10T10:16:59.628Z,73.49
2019-01-10T10:17:59.626Z,73.66
2019-01-10T10:18:59.605Z,73.90
2019-01-10T10:19:59.598Z,73.97
2019-01-10T10:20:59.578Z,73.46
2019-01-10T10:21:59.573Z,73.66
2019-01-10T10:22:59.569Z,73.97
2019-01-10T10:23:59.549Z,73.14
2019-01-10T10:24:59.550Z,73.35
2019-01-10T10:25:59.538Z,73.00
2019-01-10T10:26:59.516Z,72.28
2019-01-10T10:27:59.540Z,72.28
2019-01-10T10:28:59.493Z,72.38
2019-01-10T10:29:59.483Z,72.34
2019-01-10T10:30:59.484Z,72.45
2019-01-10T10:31:59.474Z,72.14
2019-01-10T10:32:59.466Z,72.03
2019-01-10T10:33:59.441Z,71.31
2019-01-10T10:34:59.433Z,70.89
2019-01-10T10:35:59.426Z,71.31
2019-01-10T10:36:59.412Z,71.10
2019-01-10T10:37:59.416Z,71.83
2019-01-10T10:38:59.387Z,71.80
2019-01-10T10:39:59.378Z,71.59
2019-01-10T10:40:59.369Z,71.80
2019-01-10T10:41:59.365Z,71.76
2019-01-10T10:42:59.377Z,70.83
2019-01-10T10:43:59.344Z,70.72
2019-01-10T10:44:59.324Z,70.41
2019-01-10T10:46:01.706Z,69.68
2019-01-10T10:46:59.313Z,69.58
2019-01-10T10:47:59.320Z,69.58
2019-01-10T10:48:59.289Z,69.48
2019-01-10T10:49:59.281Z,70.65
2019-01-10T10:50:59.261Z,71.24
2019-01-10T10:51:59.257Z,70.51
2019-01-10T10:52:59.281Z,70.51
2019-01-10T10:53:59.237Z,70.51
2019-01-10T10:54:59.224Z,70.72
2019-01-10T10:55:59.207Z,70.38
2019-01-10T10:56:59.204Z,70.90
2019-01-10T10:57:59.182Z,71.42
2019-01-10T10:58:59.189Z,70.48
2019-01-10T10:59:59.169Z,70.35
2019-01-10T11:00:59.199Z,70.48
2019-01-10T11:01:59.154Z,70.87
2019-01-10T11:02:59.132Z,70.45
2019-01-10T11:03:59.150Z,70.21
2019-01-10T11:04:59.112Z,69.69
2019-01-10T11:05:59.103Z,69.38
2019-01-10T11:06:59.096Z,69.59
2019-01-10T11:07:59.077Z,69.48
2019-01-10T11:08:59.076Z,69.48
2019-01-10T11:09:59.053Z,69.59
2019-01-10T11:10:59.058Z,69.69
2019-01-10T11:11:59.054Z,69.59
2019-01-10T11:12:59.032Z,69.59
2019-01-10T11:13:59.035Z,69.52
2019-01-10T11:14:59.007Z,69.59
2019-01-10T11:15:59.005Z,69.52
2019-01-10T11:16:59.003Z,69.62
2019-01-10T11:17:58.975Z,69.42
2019-01-10T11:18:58.983Z,68.38
2019-01-10T11:19:58.947Z,68.10
2019-01-10T11:20:58.940Z,68.72
2019-01-10T11:21:58.939Z,68.82
2019-01-10T11:22:58.936Z,69.65
2019-01-10T11:23:58.954Z,69.86
2019-01-10T11:24:58.894Z,69.65
2019-01-10T11:25:58.881Z,70.17
2019-01-10T11:26:58.871Z,69.21
2019-01-10T11:27:58.882Z,69.52
2019-01-10T11:28:58.864Z,69.48
2019-01-10T11:29:58.850Z,69.69
2019-01-10T11:30:58.858Z,68.55
2019-01-10T11:31:58.826Z,68.13
2019-01-10T11:32:58.808Z,68.65
2019-01-10T11:33:58.821Z,68.55
2019-01-10T11:34:58.791Z,68.86
2019-01-10T11:35:58.788Z,69.10
2019-01-10T11:36:58.770Z,68.44
2019-01-10T11:37:58.759Z,68.44
2019-01-10T11:38:58.767Z,68.34
2019-01-10T11:39:58.739Z,68.24
2019-01-10T11:40:58.725Z,68.31
2019-01-10T11:41:58.724Z,67.90
2019-01-10T11:42:58.705Z,68.10
2019-01-10T11:43:58.705Z,67.93
2019-01-10T11:44:58.682Z,67.90
2019-01-10T11:45:58.676Z,68.13
2019-01-10T11:46:58.678Z,67.72
2019-01-10T11:47:58.661Z,68.13
2019-01-10T11:48:58.668Z,67.03
2019-01-10T11:49:58.638Z,67.03
2019-01-10T11:50:58.635Z,66.20
2019-01-10T11:51:58.608Z,66.82
2019-01-10T11:52:58.603Z,67.44
2019-01-10T11:53:58.605Z,66.72
2019-01-10T11:54:58.580Z,67.27
2019-01-10T11:55:58.565Z,67.71
2019-01-10T11:56:58.554Z,67.50
2019-01-10T11:57:58.549Z,66.57
2019-01-10T11:58:58.549Z,66.71
2019-01-10T11:59:58.528Z,67.74
2019-01-10T12:00:58.516Z,68.47
2019-01-10T12:01:58.507Z,67.95
2019-01-10T12:02:58.496Z,66.60
2019-01-10T12:03:58.498Z,66.94
2019-01-10T12:04:58.477Z,67.57
2019-01-10T12:05:58.476Z,67.64
2019-01-10T12:06:58.459Z,67.43
2019-01-10T12:07:58.511Z,67.85
2019-01-10T12:08:58.483Z,68.47
2019-01-10T12:09:58.426Z,68.65
2019-01-10T12:10:58.446Z,68.85
2019-01-10T12:11:58.407Z,68.96
2019-01-10T12:12:58.401Z,69.27
2019-01-10T12:13:58.378Z,68.54
2019-01-10T12:14:58.384Z,68.75
2019-01-10T12:15:58.357Z,68.54
2019-01-10T12:16:58.358Z,68.20
2019-01-10T12:17:58.346Z,67.68
2019-01-10T12:18:59.302Z,67.96
2019-01-10T12:19:58.341Z,67.99
2019-01-10T12:20:58.310Z,68.62
2019-01-10T12:21:58.302Z,68.51
2019-01-10T12:22:58.299Z,68.17
2019-01-10T12:23:58.295Z,67.44
2019-01-10T12:24:58.285Z,67.06
2019-01-10T12:25:58.256Z,66.22
2019-01-10T12:26:58.250Z,65.32
2019-01-10T12:27:58.241Z,65.94
2019-01-10T12:28:58.239Z,65.94
2019-01-10T12:29:58.235Z,66.05
2019-01-10T12:30:58.220Z,65.94
2019-01-10T12:31:58.194Z,66.15
2019-01-10T12:32:58.284Z,66.25
2019-01-10T12:33:58.176Z,65.94
2019-01-10T12:34:58.183Z,66.36
2019-01-10T12:35:58.154Z,66.05
2019-01-10T12:37:00.552Z,65.63
2019-01-10T12:37:58.125Z,65.84
2019-01-10T12:38:58.118Z,65.84
2019-01-10T12:39:58.140Z,65.84
2019-01-10T12:40:58.099Z,66.15
2019-01-10T12:41:58.094Z,66.88
2019-01-10T12:42:58.083Z,66.67
2019-01-10T12:43:58.068Z,65.94
2019-01-10T12:44:58.073Z,65.32
2019-01-10T12:45:58.046Z,65.94
2019-01-10T12:46:58.058Z,66.02
2019-01-10T12:47:58.033Z,65.91
2019-01-10T12:48:58.013Z,66.02
2019-01-10T12:49:58.022Z,65.91
2019-01-10T12:50:57.996Z,65.91
2019-01-10T12:51:57.981Z,65.81